Thorco Reef — VRIP4 — position and weather

sailwx.info

Track history (hours):
 
Tides and Currents Weather Stations Pressure Air Temp Water Temp Dewpoint Dewpoint Depression Visibility Wind Speed Wind Dir Waves Ship Positions

Thorco Reef

Last reported at 2018-Jun-14 11:06 UTC. Time now 2018-Jun-23 06:18 UTC.
Position N 27°35' W 014°34'.
Warning: this ship's position is 8 days out of date.

Length 161 m; draft 6.9 m.

Type: Ship. MMSI: 477196900.

Date/timePositionNaut miles runAvg speedWind from/ knotsBaromVisibWave heightAir tempDewpointWater temp
2018-Jun-14 11:06N 27°35' W 014°34'313.3
2018-Jun-14 10:51N 27°38' W 014°31'513.3
2018-Jun-14 10:27N 27°42' W 014°28'613.4
2018-Jun-14 10:00N 27°47' W 014°24'713.6
2018-Jun-14 09:28N 27°53' W 014°19'1113.3
2018-Jun-14 08:40N 28°01' W 014°11'413.3
2018-Jun-14 08:20N 28°03' W 014°07'513.7
2018-Jun-14 08:00N 28°06' W 014°02'713.7
2018-Jun-14 07:30N 28°09' W 013°56'1613.7
2018-Jun-14 06:21N 28°22' W 013°45'514.0
2018-Jun-14 05:58N 28°27' W 013°44'713.8
2018-Jun-14 05:30N 28°34' W 013°43'713.7
2018-Jun-14 05:00N 28°40' W 013°42'713.4
2018-Jun-14 04:30N 28°47' W 013°39'713.5
2018-Jun-14 04:01N 28°50' W 013°33'713.6
2018-Jun-14 03:31N 28°54' W 013°26'713.4
2018-Jun-14 03:01N 28°59' W 013°21'713.3
2018-Jun-14 02:30N 29°04' W 013°17'  
2018-Jun-10 00:43N 49°36' W 003°54'313.4
2018-Jun-10 00:31N 49°38' W 003°50'713.6
2018-Jun-09 23:59N 49°42' W 003°40'914.1
2018-Jun-09 23:18N 49°46' W 003°28'414.6
2018-Jun-09 23:01N 49°48' W 003°22'714.9
2018-Jun-09 22:30N 49°52' W 003°11'815.3
2018-Jun-09 22:00N 49°55' W 003°01'815.2
2018-Jun-09 21:30N 49°58' W 002°50'815.2
2018-Jun-09 21:00N 50°00' W 002°39'2614.4
2018-Jun-09 19:11N 50°08' W 001°59'313.3
2018-Jun-09 18:58N 50°09' W 001°55'613.0
2018-Jun-09 18:30N 50°10' W 001°46'612.4
2018-Jun-09 18:00N 50°12' W 001°37'712.1
2018-Jun-09 17:24N 50°14' W 001°26'611.7
2018-Jun-09 16:53N 50°16' W 001°17'411.6
2018-Jun-09 16:30N 50°17' W 001°10'611.6
2018-Jun-09 16:00N 50°19' W 001°01'1212.3
2018-Jun-09 15:01N 50°22' W 000°43'712.9
2018-Jun-09 14:29N 50°24' W 000°33'713.4
2018-Jun-09 14:00N 50°26' W 000°23'814.0
2018-Jun-09 13:27N 50°28' W 000°11'614.5
2018-Jun-09 13:00N 50°30' W 000°01'1214.9
2018-Jun-09 12:14N 50°33' E 000°16'315.0
2018-Jun-09 12:00N 50°34' E 000°21'715.0
2018-Jun-09 11:30N 50°36' E 000°32'714.8
2018-Jun-09 11:00N 50°40' E 000°42'714.5
2018-Jun-09 10:30N 50°44' E 000°52'714.1
2018-Jun-09 10:01N 50°48' E 001°01'713.6
2018-Jun-09 09:29N 50°52' E 001°10'613.1
2018-Jun-09 09:00N 50°56' E 001°18'612.4
2018-Jun-09 08:30N 51°00' E 001°25'612.2
2018-Jun-09 08:00N 51°04' E 001°32'612.0
2018-Jun-09 07:30N 51°09' E 001°39'612.4
2018-Jun-09 07:00N 51°13' E 001°46'713.1
2018-Jun-09 06:30N 51°18' E 001°52'713.9
2018-Jun-09 06:00N 51°24' E 001°59'612.1
2018-Jun-09 05:30N 51°23' E 002°08'713.8
2018-Jun-09 05:01N 51°21' E 002°19'714.7
2018-Jun-09 04:31N 51°23' E 002°30'714.6
2018-Jun-09 04:00N 51°22' E 002°42'713.3
2018-Jun-09 03:30N 51°22' E 002°53'714.7
2018-Jun-09 03:00N 51°24' E 003°04'815.3
2018-Jun-09 02:30N 51°25' E 003°16'815.7
2018-Jun-09 02:00N 51°25' E 003°29'611.3
2018-Jun-09 01:30N 51°26' E 003°38'612.4
2018-Jun-09 01:00N 51°22' E 003°45'714.5
2018-Jun-09 00:30N 51°23' E 003°56'4 7.6
2018-Jun-09 00:00N 51°24' E 004°02'611.7
2018-Jun-08 23:30N 51°24' E 004°12'5 9.5
2018-Jun-08 23:00N 51°21' E 004°17'0 0.0
2018-Jun-08 22:30N 51°21' E 004°17'0 0.5
2018-Jun-08 22:00N 51°21' E 004°18'2 3.3
2018-Jun-08 21:30N 51°20' E 004°19'0 0.7
2018-Jun-08 20:50N 51°20' E 004°20'0 0.0
2018-Jun-08 20:23N 51°20' E 004°20'0 0.0
2018-Jun-08 19:56N 51°20' E 004°20'0 0.0
2018-Jun-08 19:29N 51°20' E 004°20'0 0.0
2018-Jun-08 18:56N 51°20' E 004°20'0 0.0
2018-Jun-08 18:26N 51°20' E 004°20'0 0.0
2018-Jun-08 17:56N 51°20' E 004°20'0 0.0
2018-Jun-08 17:26N 51°20' E 004°20'0 0.0
2018-Jun-08 16:56N 51°20' E 004°20'0 0.0
2018-Jun-08 16:26N 51°20' E 004°20'0 0.0
2018-Jun-08 15:59N 51°20' E 004°20'0 0.0
2018-Jun-08 15:26N 51°20' E 004°20'0 0.0
2018-Jun-08 14:59N 51°20' E 004°20'0 0.0
2018-Jun-08 14:17N 51°20' E 004°20'0 0.0
2018-Jun-08 13:59N 51°20' E 004°20'0 0.0
2018-Jun-08 13:20N 51°20' E 004°20'0 0.0
2018-Jun-08 12:59N 51°20' E 004°20'0 0.0
2018-Jun-08 12:29N 51°20' E 004°20'0 0.0
2018-Jun-08 11:59N 51°20' E 004°20'0 0.0
2018-Jun-08 11:26N 51°20' E 004°20'0 0.0
2018-Jun-08 10:53N 51°20' E 004°20'0 0.0
2018-Jun-08 10:29N 51°20' E 004°20'0 0.0
2018-Jun-08 09:59N 51°20' E 004°20'0 0.0
2018-Jun-08 09:29N 51°20' E 004°20'0 0.0
2018-Jun-08 08:56N 51°20' E 004°20'0 0.0
2018-Jun-08 08:26N 51°20' E 004°20'0 0.0
2018-Jun-08 07:59N 51°20' E 004°20'0 0.0
2018-Jun-08 07:26N 51°20' E 004°20'0 0.0
2018-Jun-08 06:59N 51°20' E 004°20'0 0.0
2018-Jun-08 06:26N 51°20' E 004°20'0 0.0
2018-Jun-08 05:50N 51°20' E 004°20'0 0.0
2018-Jun-08 05:29N 51°20' E 004°20'0 0.0
2018-Jun-08 04:59N 51°20' E 004°20'0 0.0
2018-Jun-08 04:26N 51°20' E 004°20'0 0.0
2018-Jun-08 03:59N 51°20' E 004°20'0 0.0
2018-Jun-08 03:29N 51°20' E 004°20'0 0.0
2018-Jun-08 02:59N 51°20' E 004°20'0 0.0
2018-Jun-08 02:29N 51°20' E 004°20'0 0.0
2018-Jun-08 01:59N 51°20' E 004°20'0 0.0
2018-Jun-08 01:26N 51°20' E 004°20'0 0.0
2018-Jun-08 00:56N 51°20' E 004°20'0 0.0
2018-Jun-08 00:23N 51°20' E 004°20'0 0.0
2018-Jun-07 23:56N 51°20' E 004°20'0 0.0
2018-Jun-07 23:20N 51°20' E 004°20'0 0.0
2018-Jun-07 22:56N 51°20' E 004°20'0 0.0
2018-Jun-07 22:26N 51°20' E 004°20'0 0.0
2018-Jun-07 21:59N 51°20' E 004°20'0 0.0
2018-Jun-07 21:26N 51°20' E 004°20'0 0.0
2018-Jun-07 20:56N 51°20' E 004°20'0 0.0
2018-Jun-07 20:20N 51°20' E 004°20'0 0.0
2018-Jun-07 19:59N 51°20' E 004°20'0 0.0
2018-Jun-07 19:29N 51°20' E 004°20'0 0.0
2018-Jun-07 18:59N 51°20' E 004°20'0 0.0
2018-Jun-07 18:26N 51°20' E 004°20'0 0.0
2018-Jun-07 17:59N 51°20' E 004°20'0 0.0
2018-Jun-07 17:26N 51°20' E 004°20'0 0.0
2018-Jun-07 16:59N 51°20' E 004°20'0 0.0
2018-Jun-07 16:20N 51°20' E 004°20'0 0.0
2018-Jun-07 15:56N 51°20' E 004°20'0 0.0
2018-Jun-07 15:20N 51°20' E 004°20'0 0.0
2018-Jun-07 14:59N 51°20' E 004°20'0 0.0
2018-Jun-07 14:29N 51°20' E 004°20'0 0.0
2018-Jun-07 13:59N 51°20' E 004°20'0 0.0
2018-Jun-07 13:26N 51°20' E 004°20'0 0.0
2018-Jun-07 12:53N 51°20' E 004°20'0 0.0
2018-Jun-07 12:26N 51°20' E 004°20'0 0.0
2018-Jun-07 11:56N 51°20' E 004°20'0 0.0
2018-Jun-07 11:23N 51°20' E 004°20'0 0.0
2018-Jun-07 10:56N 51°20' E 004°20'0 0.0
2018-Jun-07 10:26N 51°20' E 004°20'0 0.0
2018-Jun-07 09:56N 51°20' E 004°20'0 0.0
2018-Jun-07 09:17N 51°20' E 004°20'0 0.0
2018-Jun-07 08:59N 51°20' E 004°20'0 0.0
2018-Jun-07 08:26N 51°20' E 004°20'0 0.0
2018-Jun-07 07:59N 51°20' E 004°20'0 0.0
2018-Jun-07 07:26N 51°20' E 004°20'0 0.0
2018-Jun-07 06:59N 51°20' E 004°20'0 0.0
2018-Jun-07 06:23N 51°20' E 004°20'0 0.0
2018-Jun-07 05:59N 51°20' E 004°20'0 0.0
2018-Jun-07 05:26N 51°20' E 004°20'0 0.0
2018-Jun-07 04:59N 51°20' E 004°20'0 0.0
2018-Jun-07 04:29N 51°20' E 004°20'0 0.0
2018-Jun-07 03:59N 51°20' E 004°20'0 0.0
2018-Jun-07 03:26N 51°20' E 004°20'0 0.0
2018-Jun-07 02:56N 51°20' E 004°20'0 0.0
2018-Jun-07 02:29N 51°20' E 004°20'0 0.0
2018-Jun-07 01:59N 51°20' E 004°20'0 0.0
2018-Jun-07 01:23N 51°20' E 004°20'0 0.0
2018-Jun-07 00:59N 51°20' E 004°20'0 0.0
2018-Jun-07 00:29N 51°20' E 004°20'0 0.0
2018-Jun-06 23:59N 51°20' E 004°20'0 0.0
2018-Jun-06 23:26N 51°20' E 004°20'0 0.0
2018-Jun-06 22:59N 51°20' E 004°20'0 0.0
2018-Jun-06 22:26N 51°20' E 004°20'0 0.1
2018-Jun-06 22:00N 51°20' E 004°20'1 2.9
2018-Jun-06 21:30N 51°20' E 004°18'1 1.5
2018-Jun-06 21:01N 51°21' E 004°17'0 0.0
2018-Jun-06 20:31N 51°21' E 004°17'1 1.5
2018-Jun-06 20:00N 51°21' E 004°16'4 8.9
2018-Jun-06 19:31N 51°23' E 004°09'612.3
2018-Jun-06 19:00N 51°26' E 004°01'714.6
2018-Jun-06 18:30N 51°21' E 003°52'714.1
2018-Jun-06 18:00N 51°24' E 003°43'611.3
2018-Jun-06 17:30N 51°25' E 003°34'816.3
2018-Jun-06 17:00N 51°24' E 003°21'916.3
2018-Jun-06 16:28N 51°24' E 003°06'714.9
2018-Jun-06 16:00N 51°22' E 002°56'814.5
2018-Jun-06 15:29N 51°22' E 002°44'612.3
2018-Jun-06 15:01N 51°22' E 002°34'713.5
2018-Jun-06 14:29N 51°20' E 002°24'713.6
2018-Jun-06 13:59N 51°16' E 002°14'713.2
2018-Jun-06 13:28N 51°13' E 002°05'612.8
2018-Jun-06 13:00N 51°10' E 001°57'612.6
2018-Jun-06 12:30N 51°07' E 001°48'612.4
2018-Jun-06 12:00N 51°03' E 001°40'612.4
2018-Jun-06 11:30N 50°58' E 001°33'1812.1
2018-Jun-06 10:02N 50°42' E 001°22'212.4
2018-Jun-06 09:54N 50°41' E 001°21'4012.9
2018-Jun-06 06:47N 50°23' E 000°24'413.2
2018-Jun-06 06:30N 50°22' E 000°18'813.3
2018-Jun-06 05:55N 50°20' E 000°06'513.6
2018-Jun-06 05:30N 50°19' W 000°02'713.6
2018-Jun-06 05:00N 50°17' W 000°13'713.9
2018-Jun-06 04:30N 50°15' W 000°23'714.1
2018-Jun-06 04:01N 50°13' W 000°33'714.4
2018-Jun-06 03:30N 50°11' W 000°44'714.9
2018-Jun-06 03:00N 50°09' W 000°56'815.4
2018-Jun-06 02:30N 50°07' W 001°07'816.1
2018-Jun-06 02:00N 50°05' W 001°19'917.1
2018-Jun-06 01:30N 50°03' W 001°32'917.1
2018-Jun-06 01:00N 50°01' W 001°45'917.5
2018-Jun-06 00:30N 49°58' W 001°58'917.6
2018-Jun-06 00:00N 49°56' W 002°11'4016.2
2018-Jun-05 21:32N 49°42' W 003°10'015.7
2018-Jun-05 21:30N 49°42' W 003°10'8314.8
2018-Jun-05 15:55N 49°00' W 004°59'714.1
2018-Jun-05 15:27N 48°57' W 005°08'714.0
2018-Jun-05 14:56N 48°53' W 005°18'614.0
2018-Jun-05 14:30N 48°50' W 005°25'1012.8
2018-Jun-05 13:44N 48°44' W 005°38'913.1
2018-Jun-05 13:02N 48°36' W 005°44'013.3
2018-Jun-05 13:00N 48°36' W 005°44'1312.8
2018-Jun-05 11:58N 48°23' W 005°46'1614.7
2018-Jun-05 10:53N 48°11' W 005°29'714.7
2018-Jun-05 10:24N 48°06' W 005°21'614.5
2018-Jun-05 10:00N 48°02' W 005°15'714.3
2018-Jun-05 09:30N 47°57' W 005°08'714.6
2018-Jun-05 09:00N 47°52' W 005°00'1715.0
2018-Jun-05 07:53N 47°40' W 004°43'1515.0
2018-Jun-05 06:51N 47°30' W 004°25'615.1
2018-Jun-05 06:29N 47°27' W 004°18'815.3
2018-Jun-05 05:59N 47°22' W 004°09'1015.5
2018-Jun-05 05:22N 47°17' W 003°57'615.5
2018-Jun-05 05:00N 47°13' W 003°51'815.4
2018-Jun-05 04:30N 47°09' W 003°42'815.5
2018-Jun-05 04:00N 47°04' W 003°33'915.6
2018-Jun-05 03:28N 46°59' W 003°23'2815.4
2018-Jun-05 01:39N 46°43' W 002°49'1415.3
2018-Jun-05 00:45N 46°34' W 002°34'515.3
2018-Jun-05 00:27N 46°32' W 002°28'715.1
2018-Jun-05 00:00N 46°28' W 002°20'715.0
2018-Jun-04 23:30N 46°23' W 002°12'715.0
2018-Jun-04 23:00N 46°19' W 002°03'714.7
2018-Jun-04 22:30N 46°14' W 001°54'714.7
2018-Jun-04 22:00N 46°10' W 001°46'714.1
2018-Jun-04 21:30N 46°08' W 001°36'714.9
2018-Jun-04 21:00N 46°07' W 001°26'612.8
2018-Jun-04 20:30N 46°06' W 001°16'3 5.4
2018-Jun-04 20:00N 46°09' W 001°15'1 1.9
2018-Jun-04 19:28N 46°09' W 001°14'0 0.0
2018-Jun-04 18:58N 46°09' W 001°14'0 0.0
2018-Jun-04 18:28N 46°09' W 001°14'0 0.0
2018-Jun-04 17:58N 46°09' W 001°14'0 0.0
2018-Jun-04 17:31N 46°09' W 001°14'0 0.0
2018-Jun-04 16:58N 46°09' W 001°14'0 0.0
2018-Jun-04 16:31N 46°09' W 001°14'0 0.0
2018-Jun-04 16:01N 46°09' W 001°14'0 0.0
2018-Jun-04 15:31N 46°09' W 001°14'0 0.0
2018-Jun-04 14:58N 46°09' W 001°14'0 0.0
2018-Jun-04 14:31N 46°09' W 001°14'0 0.0
2018-Jun-04 13:58N 46°09' W 001°14'0 0.0
2018-Jun-04 13:28N 46°09' W 001°14'0 0.0
2018-Jun-04 13:01N 46°09' W 001°14'0 0.0
2018-Jun-04 12:28N 46°09' W 001°14'0 0.0
2018-Jun-04 12:01N 46°09' W 001°14'0 0.0
2018-Jun-04 11:31N 46°09' W 001°14'  
Track history (hours):
 
Tides and Currents Weather Stations Pressure Air Temp Water Temp Dewpoint Dewpoint Depression Visibility Wind Speed Wind Dir Waves Ship Positions

Thorco Reef

Last reported at 2018-Jun-14 11:06 UTC. Time now 2018-Jun-23 06:18 UTC.
Position N 27°35' W 014°34'.
Warning: this ship's position is 8 days out of date.

Length 161 m; draft 6.9 m.

Type: Ship. MMSI: 477196900.

Date/timePositionNaut miles runAvg speedWind from/ knotsBaromVisibWave heightAir tempDewpointWater temp
2018-Jun-14 11:06N 27°35' W 014°34'313.3
2018-Jun-14 10:51N 27°38' W 014°31'513.3
2018-Jun-14 10:27N 27°42' W 014°28'613.4
2018-Jun-14 10:00N 27°47' W 014°24'713.6
2018-Jun-14 09:28N 27°53' W 014°19'1113.3
2018-Jun-14 08:40N 28°01' W 014°11'413.3
2018-Jun-14 08:20N 28°03' W 014°07'513.7
2018-Jun-14 08:00N 28°06' W 014°02'713.7
2018-Jun-14 07:30N 28°09' W 013°56'1613.7
2018-Jun-14 06:21N 28°22' W 013°45'514.0
2018-Jun-14 05:58N 28°27' W 013°44'713.8
2018-Jun-14 05:30N 28°34' W 013°43'713.7
2018-Jun-14 05:00N 28°40' W 013°42'713.4
2018-Jun-14 04:30N 28°47' W 013°39'713.5
2018-Jun-14 04:01N 28°50' W 013°33'713.6
2018-Jun-14 03:31N 28°54' W 013°26'713.4
2018-Jun-14 03:01N 28°59' W 013°21'713.3
2018-Jun-14 02:30N 29°04' W 013°17'  
2018-Jun-10 00:43N 49°36' W 003°54'313.4
2018-Jun-10 00:31N 49°38' W 003°50'713.6
2018-Jun-09 23:59N 49°42' W 003°40'914.1
2018-Jun-09 23:18N 49°46' W 003°28'414.6
2018-Jun-09 23:01N 49°48' W 003°22'714.9
2018-Jun-09 22:30N 49°52' W 003°11'815.3
2018-Jun-09 22:00N 49°55' W 003°01'815.2
2018-Jun-09 21:30N 49°58' W 002°50'815.2
2018-Jun-09 21:00N 50°00' W 002°39'2614.4
2018-Jun-09 19:11N 50°08' W 001°59'313.3
2018-Jun-09 18:58N 50°09' W 001°55'613.0
2018-Jun-09 18:30N 50°10' W 001°46'612.4
2018-Jun-09 18:00N 50°12' W 001°37'712.1
2018-Jun-09 17:24N 50°14' W 001°26'611.7
2018-Jun-09 16:53N 50°16' W 001°17'411.6
2018-Jun-09 16:30N 50°17' W 001°10'611.6
2018-Jun-09 16:00N 50°19' W 001°01'1212.3
2018-Jun-09 15:01N 50°22' W 000°43'712.9
2018-Jun-09 14:29N 50°24' W 000°33'713.4
2018-Jun-09 14:00N 50°26' W 000°23'814.0
2018-Jun-09 13:27N 50°28' W 000°11'614.5
2018-Jun-09 13:00N 50°30' W 000°01'1214.9
2018-Jun-09 12:14N 50°33' E 000°16'315.0
2018-Jun-09 12:00N 50°34' E 000°21'715.0
2018-Jun-09 11:30N 50°36' E 000°32'714.8
2018-Jun-09 11:00N 50°40' E 000°42'714.5
2018-Jun-09 10:30N 50°44' E 000°52'714.1
2018-Jun-09 10:01N 50°48' E 001°01'713.6
2018-Jun-09 09:29N 50°52' E 001°10'613.1
2018-Jun-09 09:00N 50°56' E 001°18'612.4
2018-Jun-09 08:30N 51°00' E 001°25'612.2
2018-Jun-09 08:00N 51°04' E 001°32'612.0
2018-Jun-09 07:30N 51°09' E 001°39'612.4
2018-Jun-09 07:00N 51°13' E 001°46'713.1
2018-Jun-09 06:30N 51°18' E 001°52'713.9
2018-Jun-09 06:00N 51°24' E 001°59'612.1
2018-Jun-09 05:30N 51°23' E 002°08'713.8
2018-Jun-09 05:01N 51°21' E 002°19'714.7
2018-Jun-09 04:31N 51°23' E 002°30'714.6
2018-Jun-09 04:00N 51°22' E 002°42'713.3
2018-Jun-09 03:30N 51°22' E 002°53'714.7
2018-Jun-09 03:00N 51°24' E 003°04'815.3
2018-Jun-09 02:30N 51°25' E 003°16'815.7
2018-Jun-09 02:00N 51°25' E 003°29'611.3
2018-Jun-09 01:30N 51°26' E 003°38'612.4
2018-Jun-09 01:00N 51°22' E 003°45'714.5
2018-Jun-09 00:30N 51°23' E 003°56'4 7.6
2018-Jun-09 00:00N 51°24' E 004°02'611.7
2018-Jun-08 23:30N 51°24' E 004°12'5 9.5
2018-Jun-08 23:00N 51°21' E 004°17'0 0.0
2018-Jun-08 22:30N 51°21' E 004°17'0 0.5
2018-Jun-08 22:00N 51°21' E 004°18'2 3.3
2018-Jun-08 21:30N 51°20' E 004°19'0 0.7
2018-Jun-08 20:50N 51°20' E 004°20'0 0.0
2018-Jun-08 20:23N 51°20' E 004°20'0 0.0
2018-Jun-08 19:56N 51°20' E 004°20'0 0.0
2018-Jun-08 19:29N 51°20' E 004°20'0 0.0
2018-Jun-08 18:56N 51°20' E 004°20'0 0.0
2018-Jun-08 18:26N 51°20' E 004°20'0 0.0
2018-Jun-08 17:56N 51°20' E 004°20'0 0.0
2018-Jun-08 17:26N 51°20' E 004°20'0 0.0
2018-Jun-08 16:56N 51°20' E 004°20'0 0.0
2018-Jun-08 16:26N 51°20' E 004°20'0 0.0
2018-Jun-08 15:59N 51°20' E 004°20'0 0.0
2018-Jun-08 15:26N 51°20' E 004°20'0 0.0
2018-Jun-08 14:59N 51°20' E 004°20'0 0.0
2018-Jun-08 14:17N 51°20' E 004°20'0 0.0
2018-Jun-08 13:59N 51°20' E 004°20'0 0.0
2018-Jun-08 13:20N 51°20' E 004°20'0 0.0
2018-Jun-08 12:59N 51°20' E 004°20'0 0.0
2018-Jun-08 12:29N 51°20' E 004°20'0 0.0
2018-Jun-08 11:59N 51°20' E 004°20'0 0.0
2018-Jun-08 11:26N 51°20' E 004°20'0 0.0
2018-Jun-08 10:53N 51°20' E 004°20'0 0.0
2018-Jun-08 10:29N 51°20' E 004°20'0 0.0
2018-Jun-08 09:59N 51°20' E 004°20'0 0.0
2018-Jun-08 09:29N 51°20' E 004°20'0 0.0
2018-Jun-08 08:56N 51°20' E 004°20'0 0.0
2018-Jun-08 08:26N 51°20' E 004°20'0 0.0
2018-Jun-08 07:59N 51°20' E 004°20'0 0.0
2018-Jun-08 07:26N 51°20' E 004°20'0 0.0
2018-Jun-08 06:59N 51°20' E 004°20'0 0.0
2018-Jun-08 06:26N 51°20' E 004°20'0 0.0
2018-Jun-08 05:50N 51°20' E 004°20'0 0.0
2018-Jun-08 05:29N 51°20' E 004°20'0 0.0
2018-Jun-08 04:59N 51°20' E 004°20'0 0.0
2018-Jun-08 04:26N 51°20' E 004°20'0 0.0
2018-Jun-08 03:59N 51°20' E 004°20'0 0.0
2018-Jun-08 03:29N 51°20' E 004°20'0 0.0
2018-Jun-08 02:59N 51°20' E 004°20'0 0.0
2018-Jun-08 02:29N 51°20' E 004°20'0 0.0
2018-Jun-08 01:59N 51°20' E 004°20'0 0.0
2018-Jun-08 01:26N 51°20' E 004°20'0 0.0
2018-Jun-08 00:56N 51°20' E 004°20'0 0.0
2018-Jun-08 00:23N 51°20' E 004°20'0 0.0
2018-Jun-07 23:56N 51°20' E 004°20'0 0.0
2018-Jun-07 23:20N 51°20' E 004°20'0 0.0
2018-Jun-07 22:56N 51°20' E 004°20'0 0.0
2018-Jun-07 22:26N 51°20' E 004°20'0 0.0
2018-Jun-07 21:59N 51°20' E 004°20'0 0.0
2018-Jun-07 21:26N 51°20' E 004°20'0 0.0
2018-Jun-07 20:56N 51°20' E 004°20'0 0.0
2018-Jun-07 20:20N 51°20' E 004°20'0 0.0
2018-Jun-07 19:59N 51°20' E 004°20'0 0.0
2018-Jun-07 19:29N 51°20' E 004°20'0 0.0
2018-Jun-07 18:59N 51°20' E 004°20'0 0.0
2018-Jun-07 18:26N 51°20' E 004°20'0 0.0
2018-Jun-07 17:59N 51°20' E 004°20'0 0.0
2018-Jun-07 17:26N 51°20' E 004°20'0 0.0
2018-Jun-07 16:59N 51°20' E 004°20'0 0.0
2018-Jun-07 16:20N 51°20' E 004°20'0 0.0
2018-Jun-07 15:56N 51°20' E 004°20'0 0.0
2018-Jun-07 15:20N 51°20' E 004°20'0 0.0
2018-Jun-07 14:59N 51°20' E 004°20'0 0.0
2018-Jun-07 14:29N 51°20' E 004°20'0 0.0
2018-Jun-07 13:59N 51°20' E 004°20'0 0.0
2018-Jun-07 13:26N 51°20' E 004°20'0 0.0
2018-Jun-07 12:53N 51°20' E 004°20'0 0.0
2018-Jun-07 12:26N 51°20' E 004°20'0 0.0
2018-Jun-07 11:56N 51°20' E 004°20'0 0.0
2018-Jun-07 11:23N 51°20' E 004°20'0 0.0
2018-Jun-07 10:56N 51°20' E 004°20'0 0.0
2018-Jun-07 10:26N 51°20' E 004°20'0 0.0
2018-Jun-07 09:56N 51°20' E 004°20'0 0.0
2018-Jun-07 09:17N 51°20' E 004°20'0 0.0
2018-Jun-07 08:59N 51°20' E 004°20'0 0.0
2018-Jun-07 08:26N 51°20' E 004°20'0 0.0
2018-Jun-07 07:59N 51°20' E 004°20'0 0.0
2018-Jun-07 07:26N 51°20' E 004°20'0 0.0
2018-Jun-07 06:59N 51°20' E 004°20'0 0.0
2018-Jun-07 06:23N 51°20' E 004°20'0 0.0
2018-Jun-07 05:59N 51°20' E 004°20'0 0.0
2018-Jun-07 05:26N 51°20' E 004°20'0 0.0
2018-Jun-07 04:59N 51°20' E 004°20'0 0.0
2018-Jun-07 04:29N 51°20' E 004°20'0 0.0
2018-Jun-07 03:59N 51°20' E 004°20'0 0.0
2018-Jun-07 03:26N 51°20' E 004°20'0 0.0
2018-Jun-07 02:56N 51°20' E 004°20'0 0.0
2018-Jun-07 02:29N 51°20' E 004°20'0 0.0
2018-Jun-07 01:59N 51°20' E 004°20'0 0.0
2018-Jun-07 01:23N 51°20' E 004°20'0 0.0
2018-Jun-07 00:59N 51°20' E 004°20'0 0.0
2018-Jun-07 00:29N 51°20' E 004°20'0 0.0
2018-Jun-06 23:59N 51°20' E 004°20'0 0.0
2018-Jun-06 23:26N 51°20' E 004°20'0 0.0
2018-Jun-06 22:59N 51°20' E 004°20'0 0.0
2018-Jun-06 22:26N 51°20' E 004°20'0 0.1
2018-Jun-06 22:00N 51°20' E 004°20'1 2.9
2018-Jun-06 21:30N 51°20' E 004°18'1 1.5
2018-Jun-06 21:01N 51°21' E 004°17'0 0.0
2018-Jun-06 20:31N 51°21' E 004°17'1 1.5
2018-Jun-06 20:00N 51°21' E 004°16'4 8.9
2018-Jun-06 19:31N 51°23' E 004°09'612.3
2018-Jun-06 19:00N 51°26' E 004°01'714.6
2018-Jun-06 18:30N 51°21' E 003°52'714.1
2018-Jun-06 18:00N 51°24' E 003°43'611.3
2018-Jun-06 17:30N 51°25' E 003°34'816.3
2018-Jun-06 17:00N 51°24' E 003°21'916.3
2018-Jun-06 16:28N 51°24' E 003°06'714.9
2018-Jun-06 16:00N 51°22' E 002°56'814.5
2018-Jun-06 15:29N 51°22' E 002°44'612.3
2018-Jun-06 15:01N 51°22' E 002°34'713.5
2018-Jun-06 14:29N 51°20' E 002°24'713.6
2018-Jun-06 13:59N 51°16' E 002°14'713.2
2018-Jun-06 13:28N 51°13' E 002°05'612.8
2018-Jun-06 13:00N 51°10' E 001°57'612.6
2018-Jun-06 12:30N 51°07' E 001°48'612.4
2018-Jun-06 12:00N 51°03' E 001°40'612.4
2018-Jun-06 11:30N 50°58' E 001°33'1812.1
2018-Jun-06 10:02N 50°42' E 001°22'212.4
2018-Jun-06 09:54N 50°41' E 001°21'4012.9
2018-Jun-06 06:47N 50°23' E 000°24'413.2
2018-Jun-06 06:30N 50°22' E 000°18'813.3
2018-Jun-06 05:55N 50°20' E 000°06'513.6
2018-Jun-06 05:30N 50°19' W 000°02'713.6
2018-Jun-06 05:00N 50°17' W 000°13'713.9
2018-Jun-06 04:30N 50°15' W 000°23'714.1
2018-Jun-06 04:01N 50°13' W 000°33'714.4
2018-Jun-06 03:30N 50°11' W 000°44'714.9
2018-Jun-06 03:00N 50°09' W 000°56'815.4
2018-Jun-06 02:30N 50°07' W 001°07'816.1
2018-Jun-06 02:00N 50°05' W 001°19'917.1
2018-Jun-06 01:30N 50°03' W 001°32'917.1
2018-Jun-06 01:00N 50°01' W 001°45'917.5
2018-Jun-06 00:30N 49°58' W 001°58'917.6
2018-Jun-06 00:00N 49°56' W 002°11'4016.2
2018-Jun-05 21:32N 49°42' W 003°10'015.7
2018-Jun-05 21:30N 49°42' W 003°10'8314.8
2018-Jun-05 15:55N 49°00' W 004°59'714.1
2018-Jun-05 15:27N 48°57' W 005°08'714.0
2018-Jun-05 14:56N 48°53' W 005°18'614.0
2018-Jun-05 14:30N 48°50' W 005°25'1012.8
2018-Jun-05 13:44N 48°44' W 005°38'913.1
2018-Jun-05 13:02N 48°36' W 005°44'013.3
2018-Jun-05 13:00N 48°36' W 005°44'1312.8
2018-Jun-05 11:58N 48°23' W 005°46'1614.7
2018-Jun-05 10:53N 48°11' W 005°29'714.7
2018-Jun-05 10:24N 48°06' W 005°21'614.5
2018-Jun-05 10:00N 48°02' W 005°15'714.3
2018-Jun-05 09:30N 47°57' W 005°08'714.6
2018-Jun-05 09:00N 47°52' W 005°00'1715.0
2018-Jun-05 07:53N 47°40' W 004°43'1515.0
2018-Jun-05 06:51N 47°30' W 004°25'615.1
2018-Jun-05 06:29N 47°27' W 004°18'815.3
2018-Jun-05 05:59N 47°22' W 004°09'1015.5
2018-Jun-05 05:22N 47°17' W 003°57'615.5
2018-Jun-05 05:00N 47°13' W 003°51'815.4
2018-Jun-05 04:30N 47°09' W 003°42'815.5
2018-Jun-05 04:00N 47°04' W 003°33'915.6
2018-Jun-05 03:28N 46°59' W 003°23'2815.4
2018-Jun-05 01:39N 46°43' W 002°49'1415.3
2018-Jun-05 00:45N 46°34' W 002°34'515.3
2018-Jun-05 00:27N 46°32' W 002°28'715.1
2018-Jun-05 00:00N 46°28' W 002°20'715.0
2018-Jun-04 23:30N 46°23' W 002°12'715.0
2018-Jun-04 23:00N 46°19' W 002°03'714.7
2018-Jun-04 22:30N 46°14' W 001°54'714.7
2018-Jun-04 22:00N 46°10' W 001°46'714.1
2018-Jun-04 21:30N 46°08' W 001°36'714.9
2018-Jun-04 21:00N 46°07' W 001°26'612.8
2018-Jun-04 20:30N 46°06' W 001°16'3 5.4
2018-Jun-04 20:00N 46°09' W 001°15'1 1.9
2018-Jun-04 19:28N 46°09' W 001°14'0 0.0
2018-Jun-04 18:58N 46°09' W 001°14'0 0.0
2018-Jun-04 18:28N 46°09' W 001°14'0 0.0
2018-Jun-04 17:58N 46°09' W 001°14'0 0.0
2018-Jun-04 17:31N 46°09' W 001°14'0 0.0
2018-Jun-04 16:58N 46°09' W 001°14'0 0.0
2018-Jun-04 16:31N 46°09' W 001°14'0 0.0
2018-Jun-04 16:01N 46°09' W 001°14'0 0.0
2018-Jun-04 15:31N 46°09' W 001°14'0 0.0
2018-Jun-04 14:58N 46°09' W 001°14'0 0.0
2018-Jun-04 14:31N 46°09' W 001°14'0 0.0
2018-Jun-04 13:58N 46°09' W 001°14'0 0.0
2018-Jun-04 13:28N 46°09' W 001°14'0 0.0
2018-Jun-04 13:01N 46°09' W 001°14'0 0.0
2018-Jun-04 12:28N 46°09' W 001°14'0 0.0
2018-Jun-04 12:01N 46°09' W 001°14'0 0.0
2018-Jun-04 11:31N 46°09' W 001°14'  

Dump ship's entire track history